Time;durP1;ratioP1;P1;durP2;ratioP2;P2;SDS_P1;SDS_P2;PMS_P1;PMS_P2;Temp;Humidity;BMP_temperature;BMP_pressure;BME280_temperature;BME280_humidity;BME280_pressure;Samples;Min_cycle;Max_cycle;Signal;HPM_P1;HPM_P2
2021/12/16 00:02:31;;;;;;;29.75;14.43;;;;;;;6.44;100.00;100607.72;5044520;28;20068;-66
2021/12/16 00:05:20;;;;;;;28.40;14.15;;;;;;;6.42;100.00;100592.00;5044381;28;20017;-66
2021/12/16 00:08:12;;;;;;;29.10;13.82;;;;;;;6.48;100.00;100601.72;5030389;28;20026;-66
2021/12/16 00:30:15;;;;;;;24.15;12.45;;;;;;;6.31;100.00;100603.00;5042425;28;20463;-66
2021/12/16 00:35:10;;;;;;;22.33;11.93;;;;;;;6.31;100.00;100603.00;5042142;28;20028;-66
2021/12/16 00:37:35;;;;;;;24.70;13.18;;;;;;;6.36;100.00;100601.41;5042102;28;20210;-66
2021/12/16 00:40:04;;;;;;;23.42;12.32;;;;;;;6.35;100.00;100599.63;5041584;28;20063;-66
2021/12/16 00:42:39;;;;;;;29.98;15.30;;;;;;;6.31;100.00;100597.75;5042028;28;20045;-66
2021/12/16 00:55:55;;;;;;;22.13;11.77;;;;;;;6.29;100.00;100599.44;5043835;28;20359;-66
2021/12/16 00:58:36;;;;;;;22.42;11.10;;;;;;;6.30;100.00;100596.88;5043722;28;20198;-66
2021/12/16 01:01:12;;;;;;;24.85;12.30;;;;;;;6.32;100.00;100604.75;5043792;28;20075;-66
2021/12/16 01:39:04;;;;;;;22.35;11.93;;;;;;;6.32;100.00;100609.97;5043766;28;20072;-66
2021/12/16 01:51:55;;;;;;;20.17;12.18;;;;;;;6.30;100.00;100612.56;5030470;28;20018;-66
2021/12/16 01:57:25;;;;;;;21.40;11.18;;;;;;;6.29;100.00;100609.91;5027090;28;20360;-66
2021/12/16 02:00:02;;;;;;;21.13;11.57;;;;;;;6.26;100.00;100615.03;5027190;28;20213;-66
2021/12/16 02:02:48;;;;;;;24.23;11.85;;;;;;;6.29;100.00;100615.13;5046066;28;20029;-66
2021/12/16 02:10:47;;;;;;;21.50;12.05;;;;;;;6.23;100.00;100608.00;5046729;28;20248;-66
2021/12/16 02:35:29;;;;;;;23.25;11.23;;;;;;;6.11;100.00;100598.91;5046487;28;20079;-66
2021/12/16 02:37:58;;;;;;;20.25;11.48;;;;;;;6.13;100.00;100602.44;5046391;28;20051;-66
2021/12/16 02:40:24;;;;;;;22.75;12.80;;;;;;;6.09;100.00;100606.72;5045961;28;20013;-66
2021/12/16 02:43:00;;;;;;;22.23;12.13;;;;;;;6.07;100.00;100597.94;5046027;28;20036;-66
2021/12/16 02:48:33;;;;;;;23.92;11.57;;;;;;;5.95;100.00;100596.69;5045958;28;20339;-66
2021/12/16 02:51:06;;;;;;;20.83;10.85;;;;;;;6.02;100.00;100598.66;5045908;28;20064;-66
2021/12/16 02:53:32;;;;;;;20.55;11.13;;;;;;;6.00;100.00;100595.09;5045864;28;20273;-66
2021/12/16 02:55:58;;;;;;;23.08;11.77;;;;;;;6.06;100.00;100592.66;5045811;28;20041;-66
2021/12/16 02:58:24;;;;;;;23.77;12.43;;;;;;;6.08;100.00;100593.59;5045767;28;20020;-66
2021/12/16 03:01:08;;;;;;;25.40;12.48;;;;;;;6.05;100.00;100593.50;5045457;28;20025;-66
2021/12/16 03:03:37;;;;;;;24.40;11.05;;;;;;;6.00;100.00;100589.84;5045478;28;20056;-66
2021/12/16 03:06:03;;;;;;;22.20;11.65;;;;;;;6.01;100.00;100595.13;5028744;28;20229;-66
2021/12/16 03:08:31;;;;;;;19.95;11.32;;;;;;;6.01;100.00;100594.28;5025749;28;20029;-66
2021/12/16 03:11:19;;;;;;;20.85;11.70;;;;;;;5.96;100.00;100593.22;5025635;28;20068;-66
2021/12/16 03:14:04;;;;;;;22.23;12.23;;;;;;;5.92;100.00;100591.38;5027965;28;20071;-66
2021/12/16 03:16:51;;;;;;;24.70;11.50;;;;;;;5.88;100.00;100597.31;5045163;28;20371;-66
2021/12/16 03:19:36;;;;;;;22.73;12.70;;;;;;;5.83;100.00;100588.47;5044719;28;20356;-66
2021/12/16 03:22:04;;;;;;;24.27;11.52;;;;;;;5.83;100.00;100596.31;5026177;28;20218;-66
2021/12/16 03:37:24;;;;;;;20.37;12.20;;;;;;;5.82;100.00;100592.81;5045227;28;20032;-66
2021/12/16 03:40:11;;;;;;;24.35;12.85;;;;;;;5.73;100.00;100589.88;5045146;28;20037;-66
2021/12/16 03:42:48;;;;;;;20.60;12.45;;;;;;;5.68;100.00;100580.13;5032710;28;20297;-66
2021/12/16 03:48:09;;;;;;;27.80;12.73;;;;;;;5.85;100.00;100594.63;5031076;28;20056;-66
2021/12/16 03:50:35;;;;;;;20.50;11.90;;;;;;;5.85;100.00;100589.38;5033621;28;20021;-66
2021/12/16 03:53:01;;;;;;;22.63;11.30;;;;;;;5.87;100.00;100592.94;5033479;28;20080;-66
2021/12/16 03:55:27;;;;;;;23.15;12.35;;;;;;;5.79;100.00;100594.44;5025360;28;20195;-66
2021/12/16 03:57:52;;;;;;;23.23;12.77;;;;;;;5.74;100.00;100586.44;5025186;28;20029;-66
2021/12/16 04:00:26;;;;;;;23.70;12.82;;;;;;;5.90;100.00;100599.16;5025103;28;20032;-66
2021/12/16 04:02:52;;;;;;;26.42;12.43;;;;;;;5.74;100.00;100596.00;5025044;28;20345;-66
2021/12/16 04:05:18;;;;;;;27.08;12.60;;;;;;;5.71;100.00;100595.91;5025115;28;20211;-66
2021/12/16 04:07:44;;;;;;;19.80;11.73;;;;;;;5.82;100.00;100602.41;5026344;28;20025;-66
2021/12/16 04:10:31;;;;;;;18.92;10.88;;;;;;;5.81;100.00;100605.78;5040438;28;20381;-66
2021/12/16 04:12:56;;;;;;;24.10;12.38;;;;;;;5.74;100.00;100596.91;5043509;28;20217;-66
2021/12/16 04:15:22;;;;;;;23.70;12.00;;;;;;;5.73;100.00;100596.84;5036162;28;20028;-66
2021/12/16 04:17:48;;;;;;;25.15;11.25;;;;;;;5.83;100.00;100606.78;5024739;28;20072;-66
2021/12/16 04:20:15;;;;;;;19.05;10.80;;;;;;;5.84;100.00;100608.53;5024777;28;20080;-66
2021/12/16 04:22:44;;;;;;;22.02;11.25;;;;;;;5.90;100.00;100613.94;5035010;28;20313;-66
2021/12/16 04:25:30;;;;;;;21.77;13.05;;;;;;;5.73;100.00;100615.13;5024720;28;20028;-66
2021/12/16 04:28:02;;;;;;;18.70;10.80;;;;;;;5.79;100.00;100610.97;5024910;28;20026;-66
2021/12/16 04:30:29;;;;;;;;;;;;;;;5.80;100.00;100612.75;5025459;28;20022;-66
2021/12/16 04:32:55;;;;;;;23.27;12.95;;;;;;;5.85;100.00;100612.91;5024671;28;19906;-66
2021/12/16 04:35:21;;;;;;;21.92;11.35;;;;;;;5.86;100.00;100617.31;5024625;28;20018;-66
2021/12/16 04:37:47;;;;;;;21.80;11.50;;;;;;;5.66;100.00;100615.78;5032996;28;20072;-66
2021/12/16 04:40:15;;;;;;;19.25;11.18;;;;;;;5.60;100.00;100618.19;5043955;28;20018;-66
2021/12/16 04:42:42;;;;;;;22.48;11.07;;;;;;;5.64;100.00;100625.28;5044045;28;20324;-66
2021/12/16 04:45:11;;;;;;;21.38;11.63;;;;;;;5.68;100.00;100616.69;5043824;28;20359;-66
2021/12/16 04:47:38;;;;;;;21.92;11.25;;;;;;;5.79;100.00;100616.19;5030629;28;20360;-66
2021/12/16 04:50:05;;;;;;;24.48;11.90;;;;;;;5.76;100.00;100625.69;5024529;28;20022;-66
2021/12/16 04:52:31;;;;;;;18.77;10.05;;;;;;;5.81;100.00;100634.53;5024729;28;20021;-66
2021/12/16 04:54:57;;;;;;;18.27;10.65;;;;;;;5.73;100.00;100628.19;5033047;28;20030;-66
2021/12/16 04:57:22;;;;;;;23.63;11.95;;;;;;;5.83;100.00;100632.91;5043458;28;20075;-66
2021/12/16 04:59:48;;;;;;;22.80;12.63;;;;;;;5.79;100.00;100631.00;5028186;28;20029;-66
2021/12/16 05:02:18;;;;;;;23.23;12.65;;;;;;;5.70;100.00;100633.31;5031736;28;20305;-66
2021/12/16 05:04:43;;;;;;;25.45;12.35;;;;;;;5.66;100.00;100639.31;5024235;28;20025;-66
2021/12/16 05:07:10;;;;;;;24.25;11.90;;;;;;;5.78;100.00;100635.34;5023490;28;20026;-66
2021/12/16 05:12:09;;;;;;;23.00;11.75;;;;;;;5.69;100.00;100634.13;5036122;28;20071;-66
2021/12/16 05:14:34;;;;;;;29.58;12.82;;;;;;;5.75;100.00;100642.19;5042721;28;20047;-66
2021/12/16 05:17:02;;;;;;;27.35;13.90;;;;;;;5.78;100.00;100655.34;5024511;28;20018;-66
2021/12/16 05:19:28;;;;;;;28.38;14.02;;;;;;;5.80;100.00;100656.28;5032140;28;20322;-66
2021/12/16 05:24:12;;;;;;;27.13;13.15;;;;;;;5.77;100.00;100659.69;5031991;28;20060;-66
2021/12/16 05:24:39;;;;;;;28.23;13.05;;;;;;;5.78;100.00;100657.94;5043014;28;20037;-66
2021/12/16 05:27:07;;;;;;;26.02;13.55;;;;;;;5.83;100.00;100659.03;5037460;28;20059;-66
2021/12/16 05:29:33;;;;;;;30.00;14.18;;;;;;;5.75;100.00;100650.00;5046401;28;20017;-66
2021/12/16 05:31:59;;;;;;;31.48;14.10;;;;;;;5.68;100.00;100663.72;5046915;28;20029;-66
2021/12/16 05:34:25;;;;;;;33.65;14.88;;;;;;;5.73;100.00;100662.16;5045453;28;20079;-66
2021/12/16 05:36:51;;;;;;;27.38;13.27;;;;;;;5.71;100.00;100658.59;5045248;28;20044;-65
2021/12/16 05:39:18;;;;;;;28.38;14.98;;;;;;;5.81;100.00;100658.06;5029174;28;20021;-65
2021/12/16 05:41:44;;;;;;;26.23;14.00;;;;;;;5.79;100.00;100663.22;5027332;28;20089;-65
2021/12/16 05:44:10;;;;;;;30.67;14.18;;;;;;;5.78;100.00;100660.56;5027368;28;20071;-65
2021/12/16 05:46:37;;;;;;;25.52;13.00;;;;;;;5.84;100.00;100661.69;5027273;28;20053;-65
2021/12/16 05:49:05;;;;;;;28.60;13.75;;;;;;;5.82;100.00;100663.34;5027203;28;20281;-65
2021/12/16 05:51:34;;;;;;;21.83;11.98;;;;;;;5.88;100.00;100667.88;5027179;28;20048;-65
2021/12/16 05:54:02;;;;;;;26.25;12.93;;;;;;;5.84;100.00;100666.03;5027134;28;20068;-65
2021/12/16 05:56:27;;;;;;;30.52;16.05;;;;;;;5.78;100.00;100671.03;5027065;28;20029;-65
2021/12/16 05:58:53;;;;;;;18.13;10.07;;;;;;;5.78;100.00;100671.91;5027040;28;20081;-66
2021/12/16 06:01:28;;;;;;;18.27;9.95;;;;;;;5.75;100.00;100670.91;5026958;28;20026;-66
2021/12/16 06:03:55;;;;;;;23.95;12.95;;;;;;;5.73;100.00;100672.63;5026890;28;20209;-66
2021/12/16 06:06:22;;;;;;;22.38;11.55;;;;;;;5.67;100.00;100677.63;5027158;28;20072;-66
2021/12/16 06:08:48;;;;;;;22.73;12.30;;;;;;;5.67;100.00;100677.63;5026858;28;20028;-66
2021/12/16 06:11:24;;;;;;;29.48;14.45;;;;;;;5.75;100.00;100670.91;5026846;28;20029;-66
2021/12/16 06:27:41;;;;;;;24.15;13.48;;;;;;;5.84;100.00;100685.22;5024633;28;20023;-66
2021/12/16 06:30:13;;;;;;;28.23;14.10;;;;;;;5.83;100.00;100693.00;5026476;28;20093;-66
2021/12/16 06:32:38;;;;;;;24.17;13.03;;;;;;;5.83;100.00;100685.16;5026509;28;20061;-66
2021/12/16 06:35:05;;;;;;;26.02;13.82;;;;;;;5.85;100.00;100684.38;5026351;28;20251;-66
2021/12/16 06:37:33;;;;;;;25.75;13.40;;;;;;;5.83;100.00;100686.06;5025242;28;20329;-66
2021/12/16 06:39:58;;;;;;;23.48;13.98;;;;;;;5.81;100.00;100676.34;5026262;28;20076;-66
2021/12/16 06:42:25;;;;;;;23.60;13.82;;;;;;;5.80;100.00;100671.97;5026271;28;20050;-66
2021/12/16 06:45:03;;;;;;;31.00;13.52;;;;;;;5.69;100.00;100674.22;5026449;28;20026;-66
2021/12/16 06:47:37;;;;;;;26.92;13.48;;;;;;;5.78;100.00;100676.25;5026213;28;20344;-66
2021/12/16 06:50:04;;;;;;;31.48;12.95;;;;;;;5.82;100.00;100678.19;5026083;28;20022;-66
2021/12/16 06:52:36;;;;;;;28.67;14.18;;;;;;;5.72;100.00;100676.94;5026016;28;20045;-66
2021/12/16 06:55:14;;;;;;;24.50;12.13;;;;;;;5.68;100.00;100684.63;5026286;28;20022;-66
2021/12/16 07:00:19;;;;;;;30.35;13.73;;;;;;;5.66;100.00;100681.09;5025838;28;20033;-66
2021/12/16 07:03:01;;;;;;;22.17;12.15;;;;;;;5.77;100.00;100690.16;5025969;28;20025;-66
2021/12/16 07:05:39;;;;;;;28.47;13.50;;;;;;;5.76;100.00;100684.03;5025870;28;20036;-66
2021/12/16 07:08:17;;;;;;;28.70;13.55;;;;;;;5.72;100.00;100676.03;5025775;28;20251;-66
2021/12/16 07:10:45;;;;;;;22.38;12.45;;;;;;;5.77;100.00;100690.16;5025862;28;20028;-66
2021/12/16 07:13:29;;;;;;;28.58;14.25;;;;;;;5.75;100.00;100691.81;5025618;28;20047;-66
2021/12/16 07:15:56;;;;;;;27.73;13.88;;;;;;;5.72;100.00;100681.25;5025613;28;20076;-66
2021/12/16 07:18:22;;;;;;;27.52;14.32;;;;;;;5.69;100.00;100681.16;5025360;28;20057;-66
2021/12/16 07:20:47;;;;;;;24.80;14.57;;;;;;;5.76;100.00;100688.41;5025697;28;20037;-66
2021/12/16 07:23:13;;;;;;;22.10;12.68;;;;;;;5.77;100.00;100703.22;5025483;28;20021;-66
2021/12/16 07:25:40;;;;;;;20.25;12.48;;;;;;;5.83;100.00;100698.22;5025425;28;20321;-66
2021/12/16 07:28:07;;;;;;;30.73;13.68;;;;;;;5.85;100.00;100700.03;5025388;28;20140;-66
2021/12/16 07:30:35;;;;;;;22.05;13.70;;;;;;;5.86;100.00;100700.94;5025326;28;20095;-66
2021/12/16 07:33:00;;;;;;;26.10;14.68;;;;;;;5.75;100.00;100702.28;5025546;28;20072;-66
2021/12/16 07:35:27;;;;;;;27.40;14.80;;;;;;;5.86;100.00;100708.78;5025245;28;20010;-66
2021/12/16 07:37:53;;;;;;;28.17;14.48;;;;;;;5.84;100.00;100702.59;5025203;28;20033;-66
2021/12/16 07:40:22;;;;;;;28.05;15.07;;;;;;;5.82;100.00;100714.75;5025145;28;20176;-66
2021/12/16 07:45:24;;;;;;;30.55;15.80;;;;;;;5.78;100.00;100721.56;5025118;28;20095;-66
2021/12/16 07:47:49;;;;;;;34.13;16.58;;;;;;;5.76;100.00;100724.97;5024827;28;20341;-66
2021/12/16 07:50:16;;;;;;;33.83;17.95;;;;;;;5.81;100.00;100736.44;5050697;28;20067;-66
2021/12/16 07:52:41;;;;;;;29.00;16.90;;;;;;;5.87;100.00;100741.91;5060083;28;20032;-66
2021/12/16 07:55:09;;;;;;;30.35;15.95;;;;;;;5.94;100.00;100739.56;5049335;28;20067;-66
2021/12/16 07:57:35;;;;;;;30.20;16.50;;;;;;;5.89;100.00;100742.88;5043714;28;20025;-66
2021/12/16 08:00:01;;;;;;;30.50;15.48;;;;;;;5.96;100.00;100750.06;5043585;28;20341;-66
2021/12/16 08:02:26;;;;;;;28.52;15.57;;;;;;;5.93;100.00;100753.47;5048104;28;20298;-66
2021/12/16 08:04:52;;;;;;;28.00;15.10;;;;;;;5.99;100.00;100760.63;5051974;28;20131;-66
2021/12/16 08:07:20;;;;;;;28.48;15.30;;;;;;;6.01;100.00;100756.34;5054395;28;20063;-66
2021/12/16 08:09:46;;;;;;;26.60;14.18;;;;;;;6.08;100.00;100756.56;5053247;28;20067;-66
2021/12/16 08:12:14;;;;;;;26.95;14.15;;;;;;;6.13;100.00;100765.44;5052274;28;20016;-66
2021/12/16 08:14:42;;;;;;;27.05;15.05;;;;;;;6.14;100.00;100766.34;5054374;28;20022;-66
2021/12/16 08:17:08;;;;;;;27.45;14.18;;;;;;;6.20;100.00;100769.13;5051784;28;20233;-66
2021/12/16 08:19:35;;;;;;;27.13;14.82;;;;;;;6.14;100.00;100755.88;5056844;28;20417;-66
2021/12/16 08:22:01;;;;;;;28.95;15.93;;;;;;;6.15;100.00;100762.88;5063225;28;20025;-66
2021/12/16 08:24:27;;;;;;;27.98;13.95;;;;;;;6.20;100.00;100762.19;5063197;28;20021;-66
2021/12/16 08:26:53;;;;;;;28.50;14.85;;;;;;;6.21;100.00;100768.31;5063178;28;20212;-66
2021/12/16 08:29:20;;;;;;;25.45;14.13;;;;;;;6.17;100.00;100764.69;5063406;28;20074;-66
2021/12/16 08:31:46;;;;;;;24.38;13.77;;;;;;;6.23;100.00;100771.84;5062742;28;20016;-66
2021/12/16 08:34:12;;;;;;;26.50;14.13;;;;;;;6.23;100.00;100771.84;5063087;28;20044;-66
2021/12/16 08:36:38;;;;;;;27.13;14.98;;;;;;;6.18;100.00;100773.44;5063009;28;20021;-66
2021/12/16 08:39:07;;;;;;;28.88;13.35;;;;;;;6.17;100.00;100767.31;5062913;28;20031;-66
2021/12/16 08:41:39;;;;;;;31.55;14.85;;;;;;;6.25;100.00;100770.16;5062940;28;20058;-66
2021/12/16 08:44:05;;;;;;;28.17;13.45;;;;;;;6.40;100.00;100781.13;5062889;28;20233;-66
2021/12/16 08:46:34;;;;;;;25.65;14.65;;;;;;;6.39;100.00;100774.09;5043819;28;20097;-66
2021/12/16 08:49:00;;;;;;;32.25;15.02;;;;;;;6.49;100.00;100781.41;5042935;28;20029;-66
2021/12/16 08:51:31;;;;;;;28.75;14.75;;;;;;;6.55;100.00;100786.81;5043210;28;20047;-66
2021/12/16 08:53:57;;;;;;;25.73;14.93;;;;;;;6.52;100.00;100785.00;5043868;28;20081;-66
2021/12/16 08:56:25;;;;;;;28.90;17.48;;;;;;;6.50;100.00;100783.19;5044008;28;20029;-66
2021/12/16 08:58:51;;;;;;;34.58;17.52;;;;;;;6.41;100.00;100780.28;5043780;28;20088;-66
2021/12/16 09:01:20;;;;;;;46.40;19.80;;;;;;;6.47;100.00;100781.38;5047084;28;20049;-65
2021/12/16 09:03:46;;;;;;;32.28;17.33;;;;;;;6.53;100.00;100791.13;5047800;28;20371;-65
2021/12/16 09:06:12;;;;;;;46.05;19.42;;;;;;;6.59;100.00;100788.69;5047878;28;20086;-65
2021/12/16 09:08:38;;;;;;;42.03;19.52;;;;;;;6.68;100.00;100795.94;5048083;28;20044;-65
2021/12/16 09:11:07;;;;;;;38.42;20.15;;;;;;;6.61;100.00;100798.38;5047791;28;20025;-65
2021/12/16 09:13:37;;;;;;;39.35;18.90;;;;;;;6.65;100.00;100788.88;5047633;28;20063;-65
2021/12/16 09:16:06;;;;;;;30.85;17.48;;;;;;;6.74;100.00;100802.22;5047640;28;20074;-65
2021/12/16 09:18:34;;;;;;;30.63;16.05;;;;;;;6.79;99.90;100803.25;5047442;28;20041;-65
2021/12/16 09:21:03;;;;;;;35.42;16.77;;;;;;;6.82;100.00;100792.88;5047750;28;20132;-65
2021/12/16 09:23:30;;;;;;;30.67;17.45;;;;;;;6.87;100.00;100807.00;5047548;28;20206;-65
2021/12/16 09:25:56;;;;;;;45.42;19.20;;;;;;;6.88;98.79;100803.53;5047780;28;20313;-65
2021/12/16 09:28:23;;;;;;;44.28;21.08;;;;;;;6.89;99.66;100815.78;5047462;28;20053;-65
2021/12/16 09:30:50;;;;;;;44.55;20.25;;;;;;;6.98;99.59;100823.91;5047675;28;20021;-65
2021/12/16 09:33:18;;;;;;;32.95;17.50;;;;;;;6.99;99.27;100824.81;5047371;28;20036;-65
2021/12/16 09:35:47;;;;;;;37.75;19.70;;;;;;;6.98;98.93;100826.53;5047572;28;20096;-65
2021/12/16 09:38:15;;;;;;;35.03;17.65;;;;;;;7.02;99.17;100817.91;5047312;28;20029;-65
2021/12/16 09:40:49;;;;;;;34.35;18.00;;;;;;;7.12;98.88;100825.19;5047381;28;20242;-65
2021/12/16 09:43:16;;;;;;;34.65;17.35;;;;;;;7.13;98.10;100824.38;5047469;28;20022;-65
2021/12/16 09:45:42;;;;;;;33.08;18.15;;;;;;;7.07;97.91;100818.06;5047119;28;20091;-65
2021/12/16 09:48:08;;;;;;;33.25;18.10;;;;;;;7.11;97.53;100826.03;5047070;28;20029;-65
2021/12/16 09:50:33;;;;;;;33.55;17.45;;;;;;;7.19;98.06;100831.50;5047058;28;20017;-65
2021/12/16 09:53:01;;;;;;;33.08;18.15;;;;;;;7.21;97.40;100830.69;5045236;28;20221;-65
2021/12/16 09:55:28;;;;;;;34.97;18.48;;;;;;;7.29;97.17;100829.19;5046875;28;20025;-65
2021/12/16 09:57:54;;;;;;;29.48;16.98;;;;;;;7.28;97.73;100830.03;5046936;28;20221;-65
2021/12/16 10:00:25;;;;;;;31.58;17.55;;;;;;;7.37;96.62;100834.66;5047015;28;20022;-65
2021/12/16 10:02:52;;;;;;;32.38;17.33;;;;;;;7.41;97.47;100823.41;5046891;28;20029;-65
2021/12/16 10:05:19;;;;;;;31.92;16.35;;;;;;;7.49;97.13;100828.03;5046715;28;20022;-66
2021/12/16 10:07:44;;;;;;;35.80;17.33;;;;;;;7.50;96.90;100829.78;5046714;28;20029;-66
2021/12/16 10:10:14;;;;;;;32.78;18.20;;;;;;;7.62;96.28;100832.75;5046661;28;20029;-66
2021/12/16 10:12:43;;;;;;;32.20;17.20;;;;;;;7.59;95.72;100822.19;5046627;28;20025;-66
2021/12/16 10:18:12;;;;;;;36.60;18.85;;;;;;;7.74;95.63;100819.97;5038127;28;20037;-65
2021/12/16 10:20:45;;;;;;;35.10;19.10;;;;;;;7.85;95.61;100839.47;5046473;28;20049;-65
2021/12/16 10:23:15;;;;;;;30.58;16.85;;;;;;;7.74;96.01;100825.22;5046479;28;20317;-65
2021/12/16 10:25:47;;;;;;;32.55;18.13;;;;;;;7.78;95.18;100827.06;5046507;28;20373;-66
2021/12/16 10:28:23;;;;;;;34.30;18.10;;;;;;;7.92;94.92;100823.09;5046454;28;20021;-64
2021/12/16 10:31:09;;;;;;;34.22;19.00;;;;;;;7.98;94.43;100828.47;5046546;28;20366;-64
2021/12/16 10:33:54;;;;;;;31.77;18.20;;;;;;;7.97;95.54;100824.06;5046292;28;20032;-64
2021/12/16 10:36:41;;;;;;;31.40;18.25;;;;;;;7.97;95.07;100829.31;5046250;28;20320;-64
2021/12/16 10:39:21;;;;;;;38.20;19.95;;;;;;;8.00;94.55;100818.91;5046083;28;20059;-64
2021/12/16 10:41:54;;;;;;;33.70;18.75;;;;;;;8.07;94.80;100826.06;5046128;28;20052;-64
2021/12/16 10:44:27;;;;;;;34.35;17.70;;;;;;;8.16;94.37;100821.06;5046329;28;20310;-64
2021/12/16 10:47:01;;;;;;;34.45;18.88;;;;;;;8.31;93.82;100824.13;5046078;28;20017;-64
2021/12/16 10:49:52;;;;;;;33.53;18.42;;;;;;;8.36;94.33;100824.22;5046001;28;20021;-64
2021/12/16 10:52:26;;;;;;;34.70;19.83;;;;;;;8.40;94.20;100816.47;5045996;28;20320;-64
2021/12/16 10:54:55;;;;;;;32.90;18.35;;;;;;;8.53;93.85;100822.88;5045959;28;20025;-65
2021/12/16 10:57:26;;;;;;;33.08;18.80;;;;;;;8.66;93.04;100833.72;5045551;28;20025;-65
2021/12/16 11:00:13;;;;;;;35.00;18.08;;;;;;;8.76;91.79;100830.44;5045447;28;20025;-65
2021/12/16 11:02:39;;;;;;;31.80;17.35;;;;;;;8.86;91.17;100833.28;5053775;28;20036;-65
2021/12/16 11:05:13;;;;;;;35.05;19.08;;;;;;;8.78;91.52;100835.72;5055578;28;20025;-65
2021/12/16 11:07:44;;;;;;;32.20;18.08;;;;;;;8.91;92.47;100831.63;5056242;28;20027;-65
2021/12/16 11:10:33;;;;;;;35.38;18.65;;;;;;;8.89;92.60;100823.69;5055330;28;20331;-65
2021/12/16 11:13:03;;;;;;;34.95;18.88;;;;;;;8.88;92.30;100834.19;5055801;28;20025;-65
2021/12/16 11:15:36;;;;;;;33.13;18.17;;;;;;;9.03;91.41;100826.63;5055102;28;20313;-65
2021/12/16 11:18:02;;;;;;;34.40;18.60;;;;;;;9.00;90.88;100816.06;5051356;28;20210;-65
2021/12/16 11:20:48;;;;;;;41.65;19.48;;;;;;;9.00;91.51;100816.06;5055233;28;20025;-65
2021/12/16 11:23:18;;;;;;;33.58;17.98;;;;;;;9.06;90.71;100816.19;5054726;28;20327;-65
2021/12/16 11:25:51;;;;;;;29.60;17.45;;;;;;;9.16;90.76;100812.91;5050852;28;20313;-65
2021/12/16 11:28:31;;;;;;;37.58;18.80;;;;;;;9.22;92.39;100818.28;5055912;28;20033;-65
2021/12/16 11:31:08;;;;;;;33.38;18.85;;;;;;;9.30;91.19;100811.47;5054525;28;20096;-65
2021/12/16 11:33:50;;;;;;;30.67;17.52;;;;;;;9.35;90.26;100815.94;5054522;28;20029;-65
2021/12/16 11:36:30;;;;;;;32.22;17.83;;;;;;;9.35;90.07;100809.81;5049013;28;20021;-65
2021/12/16 11:39:05;;;;;;;34.30;17.77;;;;;;;9.42;89.88;100806.44;5059820;28;20059;-65
2021/12/16 11:41:41;;;;;;;32.03;15.88;;;;;;;9.51;89.57;100806.63;5051303;28;20029;-65
2021/12/16 11:44:18;;;;;;;32.83;16.48;;;;;;;9.58;89.42;100803.25;5052535;28;20021;-65
2021/12/16 11:47:02;;;;;;;31.08;17.10;;;;;;;9.64;88.69;100812.16;5064002;28;20025;-65
2021/12/16 11:49:33;;;;;;;29.73;17.33;;;;;;;9.67;88.97;100803.41;5063967;28;20024;-65
2021/12/16 11:52:05;;;;;;;31.07;16.93;;;;;;;9.64;87.53;100798.09;5063829;28;20075;-65
2021/12/16 11:54:44;;;;;;;30.85;16.98;;;;;;;9.76;89.23;100803.59;5060542;28;20028;-65
2021/12/16 11:57:28;;;;;;;34.60;17.88;;;;;;;9.77;88.78;100797.47;5063439;28;20044;-65
2021/12/16 12:00:13;;;;;;;29.55;15.15;;;;;;;9.77;86.08;100794.84;5063949;28;20029;-65
2021/12/16 12:02:52;;;;;;;29.52;14.27;;;;;;;9.85;84.97;100793.25;5063769;28;20313;-65
2021/12/16 12:05:22;;;;;;;24.02;13.48;;;;;;;9.88;83.66;100793.31;5063688;28;20281;-65
2021/12/16 12:07:54;;;;;;;22.40;11.68;;;;;;;10.03;83.31;100793.56;5054517;28;20036;-65
2021/12/16 12:10:47;;;;;;;24.45;13.63;;;;;;;10.06;82.22;100793.63;5045931;28;20021;-65
2021/12/16 12:13:22;;;;;;;20.20;10.68;;;;;;;10.09;80.50;100789.31;5044717;28;20033;-65
2021/12/16 12:16:00;;;;;;;22.75;10.43;;;;;;;10.33;80.43;100784.47;5044462;28;20029;-65
2021/12/16 12:18:43;;;;;;;23.00;11.82;;;;;;;10.36;81.18;100786.25;5044094;28;20054;-65
2021/12/16 12:21:27;;;;;;;22.25;10.85;;;;;;;10.50;81.39;100787.34;5044066;28;20025;-65
2021/12/16 12:24:02;;;;;;;19.98;11.43;;;;;;;10.44;82.33;100782.00;5044228;28;20032;-65
2021/12/16 12:26:29;;;;;;;19.88;10.57;;;;;;;10.50;81.82;100788.22;5044226;28;20084;-65
2021/12/16 12:29:25;;;;;;;24.73;12.52;;;;;;;10.48;82.49;100778.53;5044443;28;20316;-65
2021/12/16 12:31:58;;;;;;;21.17;10.65;;;;;;;10.58;80.59;100781.34;5044416;28;20034;-65
2021/12/16 12:34:24;;;;;;;22.15;11.93;;;;;;;10.64;80.29;100785.81;5043277;28;20025;-65
2021/12/16 12:36:53;;;;;;;18.55;9.60;;;;;;;10.63;79.16;100781.38;5044049;28;20198;-65
2021/12/16 12:39:25;;;;;;;22.58;11.60;;;;;;;10.59;81.62;100776.94;5043936;28;20260;-65
2021/12/16 12:41:52;;;;;;;20.77;11.73;;;;;;;10.54;81.03;100783.91;5044136;28;20021;-65
2021/12/16 12:44:18;;;;;;;20.25;9.18;;;;;;;10.44;79.30;100782.00;5043949;28;20026;-65
2021/12/16 12:46:44;;;;;;;17.38;8.38;;;;;;;10.39;78.95;100773.13;5044029;28;20021;-65
2021/12/16 12:49:14;;;;;;;16.48;9.38;;;;;;;10.42;78.65;100767.91;5043916;28;20021;-65
2021/12/16 12:51:47;;;;;;;12.90;7.55;;;;;;;10.18;79.56;100770.16;5044126;28;20029;-65
2021/12/16 12:54:24;;;;;;;13.48;7.60;;;;;;;10.30;78.60;100775.63;5043962;28;20032;-65
2021/12/16 12:56:51;;;;;;;16.80;9.13;;;;;;;10.24;81.11;100778.16;5043857;28;20321;-65
2021/12/16 12:59:19;;;;;;;20.67;9.98;;;;;;;10.17;81.59;100769.28;5043723;28;20225;-65
2021/12/16 13:01:47;;;;;;;19.33;10.00;;;;;;;10.26;81.73;100768.53;5043848;28;20022;-65
2021/12/16 13:04:26;;;;;;;25.13;12.13;;;;;;;10.19;81.50;100774.56;5043686;28;20033;-65
2021/12/16 13:07:07;;;;;;;20.02;10.10;;;;;;;10.22;80.79;100769.38;5043836;28;20040;-65
2021/12/16 13:09:54;;;;;;;32.20;12.03;;;;;;;10.23;81.11;100763.22;5043770;28;20089;-65
2021/12/16 13:12:28;;;;;;;16.65;7.70;;;;;;;10.26;78.29;100760.66;5042917;28;20025;-65
2021/12/16 13:15:03;;;;;;;15.25;7.78;;;;;;;10.19;77.97;100761.41;5043766;28;20029;-65
2021/12/16 13:28:35;;;;;;;15.77;7.55;;;;;;;9.51;78.74;100759.28;5043884;28;20097;-65
2021/12/16 13:31:05;;;;;;;20.52;6.80;;;;;;;9.34;79.81;100766.88;5043510;28;20013;-65
2021/12/16 13:33:43;;;;;;;12.98;7.20;;;;;;;9.14;80.85;100762.09;5043776;28;20217;-65
2021/12/16 13:36:26;;;;;;;14.40;6.00;;;;;;;9.14;78.93;100756.84;5043502;28;20088;-65
2021/12/16 13:38:51;;;;;;;15.57;7.03;;;;;;;9.04;79.73;100755.75;5043551;28;20029;-65
2021/12/16 13:41:24;;;;;;;15.32;5.57;;;;;;;9.01;79.12;100754.81;5043385;28;20033;-65
2021/12/16 13:44:13;;;;;;;14.35;5.65;;;;;;;9.00;78.78;100755.66;5043403;28;20029;-65
2021/12/16 13:59:12;;;;;;;14.48;5.32;;;;;;;9.02;77.03;100756.59;5047013;28;20024;-65
2021/12/16 14:01:38;;;;;;;11.15;5.65;;;;;;;9.16;75.92;100752.47;5046667;28;20041;-65
2021/12/16 14:10:18;;;;;;;11.93;5.68;;;;;;;9.45;73.86;100754.81;5046786;28;20032;-65
2021/12/16 14:42:19;;;;;;;12.35;6.05;;;;;;;8.78;78.05;100773.59;5055843;28;20027;-65
2021/12/16 14:50:10;;;;;;;10.35;5.05;;;;;;;8.51;79.51;100766.81;5052070;28;20013;-65
2021/12/16 14:52:36;;;;;;;8.35;4.28;;;;;;;8.44;79.30;100754.44;5053893;28;20035;-65
2021/12/16 14:55:09;;;;;;;9.57;4.40;;;;;;;8.40;79.40;100764.00;5055555;28;20066;-65
2021/12/16 14:57:45;;;;;;;11.70;4.70;;;;;;;8.28;82.15;100750.56;5053923;28;20079;-65
2021/12/16 15:00:13;;;;;;;13.48;5.50;;;;;;;8.18;83.87;100751.19;5052249;28;20009;-65
2021/12/16 15:02:41;;;;;;;13.82;5.03;;;;;;;8.09;85.31;100755.31;5053796;28;20041;-65
2021/12/16 15:05:30;;;;;;;11.00;6.07;;;;;;;7.99;84.24;100755.94;5050814;28;20317;-65
2021/12/16 15:08:07;;;;;;;9.52;5.00;;;;;;;7.86;84.28;100766.97;5053936;28;20025;-65